createdAt,value
2018-12-20T00:01:52.063Z,5.40
2018-12-20T00:03:55.730Z,5.40
2018-12-20T00:05:58.982Z,5.30
2018-12-20T00:08:02.697Z,5.40
2018-12-20T00:10:07.406Z,5.40
2018-12-20T00:12:11.223Z,5.40
2018-12-20T00:14:15.207Z,5.40
2018-12-20T00:16:19.151Z,5.30
2018-12-20T00:18:23.322Z,5.30
2018-12-20T00:20:26.897Z,5.30
2018-12-20T00:22:30.761Z,5.40
2018-12-20T00:24:34.658Z,5.30
2018-12-20T00:26:38.157Z,5.40
2018-12-20T00:28:41.803Z,5.40
2018-12-20T00:30:46.070Z,5.40
2018-12-20T00:32:50.372Z,5.40
2018-12-20T00:34:54.298Z,5.40
2018-12-20T00:36:58.525Z,5.30
2018-12-20T00:39:03.030Z,5.40
2018-12-20T00:41:07.194Z,5.40
2018-12-20T00:43:11.009Z,5.40
2018-12-20T00:45:14.681Z,5.40
2018-12-20T00:47:18.583Z,5.40
2018-12-20T00:49:22.333Z,5.40
2018-12-20T00:51:26.367Z,5.40
2018-12-20T00:53:29.851Z,5.40
2018-12-20T00:55:33.885Z,5.40
2018-12-20T00:57:38.110Z,5.40
2018-12-20T00:59:42.103Z,5.40
2018-12-20T01:01:46.540Z,5.40
2018-12-20T01:03:50.616Z,5.40
2018-12-20T01:05:54.476Z,5.40
2018-12-20T01:07:58.376Z,5.40
2018-12-20T01:10:01.825Z,5.40
2018-12-20T01:12:06.798Z,5.40
2018-12-20T01:14:11.146Z,5.40
2018-12-20T01:16:15.227Z,5.30
2018-12-20T01:18:18.870Z,5.30
2018-12-20T01:20:23.617Z,5.30
2018-12-20T01:22:27.576Z,5.40
2018-12-20T01:24:31.964Z,5.30
2018-12-20T01:26:36.305Z,5.40
2018-12-20T01:28:40.621Z,5.40
2018-12-20T01:30:44.393Z,5.40
2018-12-20T01:32:48.357Z,5.40
2018-12-20T01:34:52.637Z,5.40
2018-12-20T01:36:56.848Z,5.40
2018-12-20T01:39:01.192Z,5.40
2018-12-20T01:41:04.834Z,5.40
2018-12-20T01:43:08.841Z,5.40
2018-12-20T01:45:14.358Z,5.40
2018-12-20T01:47:18.840Z,5.40
2018-12-20T01:49:22.771Z,5.40
2018-12-20T01:51:26.907Z,5.40
2018-12-20T01:53:30.639Z,5.40
2018-12-20T01:55:35.362Z,5.30
2018-12-20T01:57:39.759Z,5.40
2018-12-20T01:59:43.835Z,5.30
2018-12-20T02:01:47.863Z,5.30
2018-12-20T02:03:52.590Z,5.30
2018-12-20T02:05:56.972Z,5.30
2018-12-20T02:08:01.599Z,5.30
2018-12-20T02:10:06.094Z,5.30
2018-12-20T02:12:09.903Z,5.30
2018-12-20T02:14:13.686Z,5.30
2018-12-20T02:16:17.682Z,5.30
2018-12-20T02:18:21.337Z,5.30
2018-12-20T02:20:25.629Z,5.30
2018-12-20T02:22:30.275Z,5.30
2018-12-20T02:24:35.175Z,5.30
2018-12-20T02:26:39.307Z,5.30
2018-12-20T02:28:43.523Z,5.30
2018-12-20T02:30:47.988Z,5.30
2018-12-20T02:32:52.222Z,5.30
2018-12-20T02:34:57.364Z,5.30
2018-12-20T02:37:01.689Z,5.30
2018-12-20T02:39:08.432Z,5.30
2018-12-20T02:41:12.851Z,5.30
2018-12-20T02:43:17.035Z,5.30
2018-12-20T02:45:20.843Z,5.30
2018-12-20T02:47:29.623Z,5.30
2018-12-20T02:49:34.217Z,5.20
2018-12-20T02:51:38.684Z,5.20
2018-12-20T02:53:42.478Z,5.20
2018-12-20T02:55:47.447Z,5.20
2018-12-20T02:57:52.500Z,5.20
2018-12-20T02:59:57.284Z,5.20
2018-12-20T03:02:01.140Z,5.20
2018-12-20T03:04:04.897Z,5.10
2018-12-20T03:06:09.392Z,5.20
2018-12-20T03:08:13.857Z,5.20
2018-12-20T03:10:18.101Z,5.10
2018-12-20T03:12:22.501Z,5.10
2018-12-20T03:14:26.460Z,5.10
2018-12-20T03:16:30.917Z,5.10
2018-12-20T03:18:35.533Z,5.10
2018-12-20T03:20:39.571Z,5.10
2018-12-20T03:22:43.982Z,5.00
2018-12-20T03:24:48.200Z,5.10
2018-12-20T03:26:52.492Z,5.00
2018-12-20T03:28:56.626Z,5.00
2018-12-20T03:31:00.786Z,5.00
2018-12-20T03:33:04.838Z,4.90
2018-12-20T03:35:09.049Z,4.90
2018-12-20T03:37:13.252Z,4.90
2018-12-20T03:39:17.330Z,4.80
2018-12-20T03:41:21.813Z,4.80
2018-12-20T03:43:26.437Z,4.90
2018-12-20T03:45:30.485Z,4.90
2018-12-20T03:47:34.172Z,4.90
2018-12-20T03:49:38.886Z,4.90
2018-12-20T03:51:42.762Z,4.90
2018-12-20T03:53:46.714Z,4.90
2018-12-20T03:55:50.882Z,4.90
2018-12-20T03:57:54.622Z,4.90
2018-12-20T03:59:58.655Z,4.90
2018-12-20T04:02:02.528Z,4.90
2018-12-20T04:04:06.297Z,4.90
2018-12-20T04:06:12.961Z,4.90
2018-12-20T04:08:17.236Z,4.90
2018-12-20T04:10:22.252Z,4.90
2018-12-20T04:12:27.102Z,4.90
2018-12-20T04:14:30.921Z,4.90
2018-12-20T04:16:34.552Z,4.90
2018-12-20T04:18:38.334Z,4.90
2018-12-20T04:20:41.578Z,4.90
2018-12-20T04:22:45.442Z,4.90
2018-12-20T04:24:49.606Z,4.90
2018-12-20T04:29:10.534Z,5.00
2018-12-20T04:31:14.378Z,5.00
2018-12-20T04:33:18.000Z,4.90
2018-12-20T04:35:22.132Z,5.00
2018-12-20T04:37:25.365Z,5.00
2018-12-20T04:39:29.093Z,5.00
2018-12-20T04:41:33.085Z,5.00
2018-12-20T04:43:36.868Z,5.00
2018-12-20T04:45:46.658Z,5.00
2018-12-20T04:47:46.591Z,5.00
2018-12-20T04:49:50.842Z,5.00
2018-12-20T04:51:54.638Z,5.10
2018-12-20T04:53:58.527Z,5.00
2018-12-20T04:56:02.277Z,5.00
2018-12-20T04:58:06.760Z,5.00
2018-12-20T05:00:12.023Z,5.00
2018-12-20T05:02:15.861Z,5.00
2018-12-20T05:04:20.114Z,5.00
2018-12-20T05:06:23.987Z,5.00
2018-12-20T05:08:27.801Z,5.00
2018-12-20T05:10:31.396Z,5.00
2018-12-20T05:12:35.133Z,5.00
2018-12-20T05:14:38.314Z,5.00
2018-12-20T05:16:41.841Z,4.90
2018-12-20T05:18:46.055Z,4.90
2018-12-20T05:20:49.538Z,4.90
2018-12-20T05:22:53.374Z,4.90
2018-12-20T05:24:57.227Z,4.90
2018-12-20T05:27:00.783Z,4.90
2018-12-20T05:29:05.125Z,4.90
2018-12-20T05:31:09.301Z,4.90
2018-12-20T05:33:12.664Z,4.90
2018-12-20T05:35:16.371Z,4.90
2018-12-20T05:37:20.403Z,4.80
2018-12-20T05:39:23.826Z,4.90
2018-12-20T05:41:27.063Z,4.90
2018-12-20T05:43:30.737Z,4.90
2018-12-20T05:45:34.678Z,4.90
2018-12-20T05:47:38.579Z,4.90
2018-12-20T05:49:42.671Z,4.90
2018-12-20T05:51:46.401Z,4.90
2018-12-20T05:53:49.793Z,4.90
2018-12-20T05:55:53.790Z,4.90
2018-12-20T05:57:58.080Z,4.90
2018-12-20T06:00:01.870Z,4.90
2018-12-20T06:02:05.819Z,4.90
2018-12-20T06:04:11.514Z,4.90
2018-12-20T06:06:15.454Z,5.00
2018-12-20T06:08:19.281Z,5.00
2018-12-20T06:10:23.176Z,5.00
2018-12-20T06:12:26.778Z,5.00
2018-12-20T06:14:30.770Z,5.00
2018-12-20T06:16:35.404Z,5.00
2018-12-20T06:18:39.403Z,5.00
2018-12-20T06:20:43.586Z,5.00
2018-12-20T06:22:47.278Z,5.00
2018-12-20T06:24:50.848Z,5.10
2018-12-20T06:26:54.811Z,5.10
2018-12-20T06:28:58.371Z,5.10
2018-12-20T06:31:01.538Z,5.10
2018-12-20T06:33:04.756Z,5.10
2018-12-20T06:35:07.970Z,5.10
2018-12-20T06:37:11.171Z,5.10
2018-12-20T06:39:14.355Z,5.10
2018-12-20T06:41:17.869Z,5.10
2018-12-20T06:43:21.318Z,5.10
2018-12-20T06:45:24.506Z,5.10
2018-12-20T06:47:27.738Z,5.10
2018-12-20T06:49:31.256Z,5.10
2018-12-20T06:51:34.998Z,5.10
2018-12-20T06:53:38.466Z,5.00
2018-12-20T06:55:41.952Z,5.00
2018-12-20T06:57:45.161Z,5.10
2018-12-20T06:59:48.371Z,5.10
2018-12-20T07:01:52.006Z,5.10
2018-12-20T07:03:55.488Z,5.10
2018-12-20T07:05:59.714Z,5.10
2018-12-20T07:08:02.942Z,5.10
2018-12-20T07:10:07.839Z,5.00
2018-12-20T07:12:11.103Z,5.10
2018-12-20T07:14:14.588Z,5.10
2018-12-20T07:16:18.473Z,5.10
2018-12-20T07:18:21.989Z,5.10
2018-12-20T07:20:25.502Z,5.10
2018-12-20T07:22:28.675Z,5.10
2018-12-20T07:24:32.590Z,5.10
2018-12-20T07:26:36.373Z,5.10
2018-12-20T07:28:39.867Z,5.10
2018-12-20T07:30:43.106Z,5.00
2018-12-20T07:32:46.603Z,5.00
2018-12-20T07:34:50.085Z,5.00
2018-12-20T07:36:53.290Z,5.00
2018-12-20T07:38:56.480Z,5.10
2018-12-20T07:40:59.666Z,5.10
2018-12-20T07:43:03.646Z,5.00
2018-12-20T07:45:08.798Z,5.10
2018-12-20T07:47:11.990Z,5.10
2018-12-20T07:49:16.078Z,5.10
2018-12-20T07:51:19.706Z,5.00
2018-12-20T07:53:23.196Z,5.00
2018-12-20T07:55:27.001Z,5.00
2018-12-20T07:57:30.867Z,5.00
2018-12-20T07:59:34.350Z,5.00
2018-12-20T08:01:38.277Z,5.00
2018-12-20T08:03:42.355Z,5.00
2018-12-20T08:05:45.852Z,4.90
2018-12-20T08:07:50.209Z,4.90
2018-12-20T08:09:53.926Z,4.90
2018-12-20T08:11:57.162Z,5.00
2018-12-20T08:14:00.401Z,5.10
2018-12-20T08:16:04.276Z,5.00
2018-12-20T08:18:07.503Z,5.10
2018-12-20T08:20:11.112Z,5.10
2018-12-20T08:22:14.978Z,5.30
2018-12-20T08:24:18.748Z,5.20
2018-12-20T08:26:21.958Z,5.20
2018-12-20T08:28:25.477Z,5.20
2018-12-20T08:30:29.368Z,5.20
2018-12-20T08:32:33.251Z,5.10
2018-12-20T08:34:37.057Z,5.10
2018-12-20T08:36:41.392Z,5.20
2018-12-20T08:38:44.917Z,5.20
2018-12-20T08:40:48.382Z,5.20
2018-12-20T08:42:51.862Z,5.20
2018-12-20T08:44:55.749Z,5.20
2018-12-20T08:46:59.693Z,5.30
2018-12-20T08:49:03.598Z,5.30
2018-12-20T08:51:07.514Z,5.30
2018-12-20T08:53:10.722Z,5.30
2018-12-20T08:55:14.248Z,5.30
2018-12-20T08:57:17.697Z,5.40
2018-12-20T08:59:20.893Z,5.40
2018-12-20T09:01:24.124Z,5.40
2018-12-20T09:03:27.315Z,5.40
2018-12-20T09:05:31.255Z,5.40
2018-12-20T09:07:34.726Z,5.40
2018-12-20T09:09:38.654Z,5.40
2018-12-20T09:11:42.134Z,5.40
2018-12-20T09:13:45.654Z,5.50
2018-12-20T09:15:48.846Z,5.40
2018-12-20T09:17:52.037Z,5.50
2018-12-20T09:19:55.312Z,5.50
2018-12-20T09:21:59.200Z,5.50
2018-12-20T09:24:02.386Z,5.50
2018-12-20T09:26:05.604Z,5.50
2018-12-20T09:28:08.801Z,5.60
2018-12-20T09:30:13.054Z,5.60
2018-12-20T09:32:16.575Z,5.50
2018-12-20T09:34:20.030Z,5.60
2018-12-20T09:36:23.255Z,5.50
2018-12-20T09:38:26.981Z,5.60
2018-12-20T09:40:30.514Z,5.60
2018-12-20T09:42:34.272Z,5.60
2018-12-20T09:44:37.770Z,5.60
2018-12-20T09:46:42.359Z,5.60
2018-12-20T09:48:46.442Z,5.50
2018-12-20T09:50:50.163Z,5.60
2018-12-20T09:52:53.658Z,5.50
2018-12-20T09:54:57.394Z,5.60
2018-12-20T09:57:00.885Z,5.70
2018-12-20T09:59:04.843Z,5.70
2018-12-20T10:01:08.330Z,5.70
2018-12-20T10:03:11.810Z,5.70
2018-12-20T10:05:15.284Z,5.80
2018-12-20T10:07:19.447Z,5.80
2018-12-20T10:09:23.022Z,5.80
2018-12-20T10:11:26.804Z,5.70
2018-12-20T10:13:30.310Z,5.80
2018-12-20T10:15:33.535Z,5.80
2018-12-20T10:17:37.438Z,5.70
2018-12-20T10:19:40.762Z,5.70
2018-12-20T10:21:44.315Z,5.70
2018-12-20T10:23:48.153Z,5.60
2018-12-20T10:25:52.779Z,5.70
2018-12-20T10:27:56.032Z,5.80
2018-12-20T10:29:59.743Z,5.80
2018-12-20T10:32:04.664Z,5.70
2018-12-20T10:34:08.194Z,5.80
2018-12-20T10:36:11.720Z,5.80
2018-12-20T10:38:15.590Z,5.80
2018-12-20T10:40:19.192Z,5.80
2018-12-20T10:42:22.681Z,5.80
2018-12-20T10:44:26.546Z,5.80
2018-12-20T10:46:30.050Z,5.90
2018-12-20T10:48:33.351Z,5.90
2018-12-20T10:50:37.014Z,5.90
2018-12-20T10:52:41.002Z,5.90
2018-12-20T10:54:44.479Z,5.90
2018-12-20T10:56:47.742Z,5.90
2018-12-20T10:58:51.713Z,5.90
2018-12-20T11:01:00.946Z,5.90
2018-12-20T11:03:09.799Z,5.90
2018-12-20T11:05:18.635Z,6.00
2018-12-20T11:07:27.478Z,6.10
2018-12-20T11:09:36.435Z,6.10
2018-12-20T11:11:45.482Z,6.20
2018-12-20T11:13:50.462Z,6.10
2018-12-20T11:15:53.955Z,6.10
2018-12-20T11:17:57.455Z,6.00
2018-12-20T11:20:01.232Z,6.00
2018-12-20T11:22:05.514Z,6.10
2018-12-20T11:24:08.992Z,6.10
2018-12-20T11:26:12.718Z,6.20
2018-12-20T11:28:16.203Z,6.20
2018-12-20T11:30:21.733Z,6.20
2018-12-20T11:32:28.838Z,6.20
2018-12-20T11:34:36.202Z,6.30
2018-12-20T11:36:45.664Z,6.30
2018-12-20T11:38:56.092Z,6.30
2018-12-20T11:41:06.878Z,6.30
2018-12-20T11:43:15.544Z,6.40
2018-12-20T11:45:19.366Z,6.40
2018-12-20T11:47:26.554Z,6.40
2018-12-20T11:49:30.777Z,6.50
2018-12-20T11:51:34.870Z,6.60
2018-12-20T11:53:38.490Z,6.60
2018-12-20T11:55:42.026Z,6.60
2018-12-20T11:57:46.220Z,6.70
2018-12-20T11:59:50.038Z,6.70
2018-12-20T12:01:53.946Z,6.70
2018-12-20T12:03:57.809Z,6.70
2018-12-20T12:06:01.992Z,6.70
2018-12-20T12:08:05.602Z,6.70
2018-12-20T12:10:09.607Z,6.70
2018-12-20T12:12:13.465Z,6.70
2018-12-20T12:14:16.646Z,6.70
2018-12-20T12:16:21.718Z,6.80
2018-12-20T12:18:25.787Z,6.80
2018-12-20T12:20:29.028Z,6.70
2018-12-20T12:22:32.183Z,6.70
2018-12-20T12:24:35.428Z,6.80
2018-12-20T12:26:38.674Z,6.70
2018-12-20T12:28:42.558Z,6.70
2018-12-20T12:30:46.002Z,6.60
2018-12-20T12:32:49.487Z,6.60
2018-12-20T12:34:53.822Z,6.60
2018-12-20T12:37:01.599Z,6.60
2018-12-20T12:39:07.956Z,6.60
2018-12-20T12:41:11.448Z,6.60
2018-12-20T12:43:18.699Z,6.60
2018-12-20T12:45:22.250Z,6.50
2018-12-20T12:47:31.284Z,6.60
2018-12-20T12:49:35.609Z,6.60
2018-12-20T12:51:39.093Z,6.60
2018-12-20T12:53:42.301Z,6.70
2018-12-20T12:55:46.435Z,6.60
2018-12-20T12:57:50.373Z,6.60
2018-12-20T12:59:53.594Z,6.60
2018-12-20T13:01:56.837Z,6.60
2018-12-20T13:04:00.792Z,6.60
2018-12-20T13:06:04.417Z,6.70
2018-12-20T13:08:08.302Z,6.60
2018-12-20T13:10:12.134Z,6.70
2018-12-20T13:12:15.925Z,6.60
2018-12-20T13:14:19.419Z,6.60
2018-12-20T13:16:22.670Z,6.60
2018-12-20T13:18:26.643Z,6.60
2018-12-20T13:20:30.241Z,6.60
2018-12-20T13:22:34.379Z,6.70
2018-12-20T13:24:37.956Z,6.70
2018-12-20T13:26:41.155Z,6.70
2018-12-20T13:28:44.559Z,6.70
2018-12-20T13:30:48.025Z,6.70
2018-12-20T13:32:51.522Z,6.60
2018-12-20T13:34:54.781Z,6.70
2018-12-20T13:36:58.004Z,6.60
2018-12-20T13:39:01.199Z,6.60
2018-12-20T13:41:05.391Z,6.60
2018-12-20T13:43:09.232Z,6.60
2018-12-20T13:45:12.811Z,6.60
2018-12-20T13:47:16.341Z,6.70
2018-12-20T13:49:20.298Z,6.70
2018-12-20T13:51:23.771Z,6.70
2018-12-20T13:53:26.942Z,6.70
2018-12-20T13:55:30.514Z,6.70
2018-12-20T13:57:33.975Z,6.80
2018-12-20T13:59:37.894Z,6.70
2018-12-20T14:01:41.375Z,6.70
2018-12-20T14:03:45.895Z,6.70
2018-12-20T14:05:49.797Z,6.70
2018-12-20T14:07:58.828Z,6.70
2018-12-20T14:09:58.317Z,6.70
2018-12-20T14:12:01.766Z,6.70
2018-12-20T14:14:05.654Z,6.70
2018-12-20T14:16:09.574Z,6.70
2018-12-20T14:18:12.791Z,6.70
2018-12-20T14:20:15.979Z,6.70
2018-12-20T14:22:19.463Z,6.70
2018-12-20T14:24:23.394Z,6.70
2018-12-20T14:26:26.875Z,6.70
2018-12-20T14:28:30.385Z,6.70
2018-12-20T14:30:33.629Z,6.70
2018-12-20T14:32:37.433Z,6.70
2018-12-20T14:34:40.605Z,6.80
2018-12-20T14:36:43.787Z,6.80
2018-12-20T14:38:47.002Z,6.80
2018-12-20T14:40:50.249Z,6.70
2018-12-20T14:42:54.162Z,6.80
2018-12-20T14:44:57.623Z,6.70
2018-12-20T14:47:01.478Z,6.70
2018-12-20T14:49:05.674Z,6.70
2018-12-20T14:51:09.489Z,6.70
2018-12-20T14:53:13.017Z,6.70
2018-12-20T14:55:16.218Z,6.70
2018-12-20T14:57:20.485Z,6.70
2018-12-20T14:59:23.970Z,6.70
2018-12-20T15:01:27.893Z,6.60
2018-12-20T15:03:31.425Z,6.60
2018-12-20T15:05:34.782Z,6.60
2018-12-20T15:07:38.177Z,6.60
2018-12-20T15:09:42.244Z,6.70
2018-12-20T15:11:45.722Z,6.70
2018-12-20T15:13:49.238Z,6.70
2018-12-20T15:15:52.424Z,6.70
2018-12-20T15:17:56.546Z,6.70
2018-12-20T15:20:00.075Z,6.60
2018-12-20T15:22:03.930Z,6.70
2018-12-20T15:24:07.414Z,6.70
2018-12-20T15:26:11.042Z,6.70
2018-12-20T15:28:14.511Z,6.70
2018-12-20T15:30:18.075Z,6.70
2018-12-20T15:32:21.289Z,6.60
2018-12-20T15:34:24.494Z,6.70
2018-12-20T15:36:27.971Z,6.70
2018-12-20T15:38:31.842Z,6.70
2018-12-20T15:40:35.333Z,6.70
2018-12-20T15:42:38.843Z,6.60
2018-12-20T15:44:42.563Z,6.60
2018-12-20T15:46:46.058Z,6.60
2018-12-20T15:48:56.279Z,6.60
2018-12-20T15:50:57.942Z,6.60
2018-12-20T15:53:01.402Z,6.60
2018-12-20T15:55:06.127Z,6.60
2018-12-20T15:57:10.048Z,6.60
2018-12-20T15:59:13.937Z,6.60
2018-12-20T16:01:17.158Z,6.60
2018-12-20T16:03:20.667Z,6.60
2018-12-20T16:05:24.934Z,6.60
2018-12-20T16:07:28.683Z,6.60
2018-12-20T16:09:32.141Z,6.60
2018-12-20T16:11:36.046Z,6.60
2018-12-20T16:13:40.210Z,6.60
2018-12-20T16:15:43.671Z,6.60
2018-12-20T16:17:47.506Z,6.60
2018-12-20T16:19:51.006Z,6.60
2018-12-20T16:21:54.721Z,6.60
2018-12-20T16:23:58.160Z,6.60
2018-12-20T16:26:02.235Z,6.60
2018-12-20T16:28:05.694Z,6.60
2018-12-20T16:30:11.354Z,6.50
2018-12-20T16:32:14.988Z,6.50
2018-12-20T16:34:18.494Z,6.60
2018-12-20T16:36:22.378Z,6.60
2018-12-20T16:38:26.055Z,6.50
2018-12-20T16:40:29.285Z,6.50
2018-12-20T16:42:33.086Z,6.50
2018-12-20T16:44:36.271Z,6.50
2018-12-20T16:46:39.862Z,6.50
2018-12-20T16:48:43.360Z,6.50
2018-12-20T16:50:46.948Z,6.40
2018-12-20T16:52:50.428Z,6.40
2018-12-20T16:54:54.314Z,6.40
2018-12-20T16:56:57.883Z,6.40
2018-12-20T16:59:01.031Z,6.40
2018-12-20T17:01:05.014Z,6.40
2018-12-20T17:03:08.490Z,6.40
2018-12-20T17:05:12.367Z,6.50
2018-12-20T17:07:16.751Z,6.40
2018-12-20T17:09:20.218Z,6.40
2018-12-20T17:11:23.777Z,6.40
2018-12-20T17:13:27.200Z,6.40
2018-12-20T17:15:31.491Z,6.40
2018-12-20T17:17:34.953Z,6.40
2018-12-20T17:19:38.639Z,6.40
2018-12-20T17:21:42.508Z,6.40
2018-12-20T17:23:46.358Z,6.40
2018-12-20T17:25:49.544Z,6.40
2018-12-20T17:27:52.742Z,6.40
2018-12-20T17:29:55.934Z,6.40
2018-12-20T17:31:59.422Z,6.40
2018-12-20T17:34:03.298Z,6.40
2018-12-20T17:36:07.213Z,6.40
2018-12-20T17:38:10.831Z,6.40
2018-12-20T17:40:14.747Z,6.40
2018-12-20T17:42:18.210Z,6.40
2018-12-20T17:44:21.711Z,6.40
2018-12-20T17:46:25.176Z,6.40
2018-12-20T17:48:29.426Z,6.40
2018-12-20T17:50:33.414Z,6.30
2018-12-20T17:52:37.306Z,6.30
2018-12-20T17:54:40.781Z,6.30
2018-12-20T17:56:44.226Z,6.20
2018-12-20T17:58:47.438Z,6.20
2018-12-20T18:00:50.910Z,6.20
2018-12-20T18:02:54.410Z,6.20
2018-12-20T18:05:06.676Z,6.10
2018-12-20T18:07:03.883Z,6.10
2018-12-20T18:09:09.026Z,6.10
2018-12-20T18:11:12.930Z,6.10
2018-12-20T18:13:16.138Z,6.00
2018-12-20T18:15:20.006Z,6.00
2018-12-20T18:17:23.534Z,6.00
2018-12-20T18:19:27.081Z,6.00
2018-12-20T18:21:30.257Z,6.00
2018-12-20T18:23:33.577Z,6.00
2018-12-20T18:25:37.058Z,6.00
2018-12-20T18:27:40.933Z,6.00
2018-12-20T18:29:45.306Z,6.10
2018-12-20T18:31:48.786Z,6.10
2018-12-20T18:33:52.996Z,6.10
2018-12-20T18:35:56.290Z,6.10
2018-12-20T18:38:00.314Z,6.10
2018-12-20T18:40:04.909Z,6.10
2018-12-20T18:42:08.732Z,6.10
2018-12-20T18:44:12.602Z,6.20
2018-12-20T18:46:16.077Z,6.20
2018-12-20T18:48:19.552Z,6.20
2018-12-20T18:50:23.657Z,6.30
2018-12-20T18:52:27.804Z,6.30
2018-12-20T18:54:30.983Z,6.30
2018-12-20T18:56:34.794Z,6.30
2018-12-20T18:58:38.262Z,6.30
2018-12-20T19:00:42.010Z,6.30
2018-12-20T19:02:45.166Z,6.30
2018-12-20T19:04:48.830Z,6.40
2018-12-20T19:06:52.323Z,6.40
2018-12-20T19:08:55.534Z,6.30
2018-12-20T19:10:58.717Z,6.30
2018-12-20T19:13:02.218Z,6.40
2018-12-20T19:15:08.170Z,6.40
2018-12-20T19:17:12.058Z,6.40
2018-12-20T19:19:15.937Z,6.30
2018-12-20T19:21:19.955Z,6.40
2018-12-20T19:23:23.433Z,6.40
2018-12-20T19:25:27.659Z,6.40
2018-12-20T19:27:31.138Z,6.40
2018-12-20T19:29:34.630Z,6.40
2018-12-20T19:31:38.052Z,6.40
2018-12-20T19:33:41.604Z,6.40
2018-12-20T19:35:44.790Z,6.40
2018-12-20T19:37:48.032Z,6.40
2018-12-20T19:39:55.987Z,6.40
2018-12-20T19:42:03.409Z,6.40
2018-12-20T19:44:06.910Z,6.40
2018-12-20T19:46:10.394Z,6.40
2018-12-20T19:48:13.625Z,6.30
2018-12-20T19:50:17.101Z,6.40
2018-12-20T19:52:20.607Z,6.40
2018-12-20T19:54:24.074Z,6.40
2018-12-20T19:56:27.574Z,6.40
2018-12-20T19:58:31.447Z,6.40
2018-12-20T20:00:35.242Z,6.40
2018-12-20T20:02:38.450Z,6.40
2018-12-20T20:04:41.938Z,6.30
2018-12-20T20:06:45.650Z,6.30
2018-12-20T20:08:49.549Z,6.30
2018-12-20T20:10:53.130Z,6.30
2018-12-20T20:12:56.707Z,6.20
2018-12-20T20:14:59.914Z,6.30
2018-12-20T20:17:03.109Z,6.30
2018-12-20T20:19:06.598Z,6.30
2018-12-20T20:21:10.062Z,6.30
2018-12-20T20:23:13.275Z,6.30
2018-12-20T20:25:17.938Z,6.30
2018-12-20T20:27:21.419Z,6.30
2018-12-20T20:29:24.655Z,6.30
2018-12-20T20:31:28.073Z,6.30
2018-12-20T20:33:31.810Z,6.20
2018-12-20T20:35:35.066Z,6.20
2018-12-20T20:37:38.977Z,6.20
2018-12-20T20:39:42.809Z,6.20
2018-12-20T20:41:46.711Z,6.20
2018-12-20T20:43:50.550Z,6.20
2018-12-20T20:45:54.401Z,6.20
2018-12-20T20:47:58.200Z,6.20
2018-12-20T20:50:02.016Z,6.20
2018-12-20T20:52:05.708Z,6.20
2018-12-20T20:54:09.491Z,6.20
2018-12-20T20:56:12.998Z,6.20
2018-12-20T20:58:16.200Z,6.20
2018-12-20T21:00:20.443Z,6.20
2018-12-20T21:02:23.950Z,6.20
2018-12-20T21:04:27.846Z,6.20
2018-12-20T21:06:32.514Z,6.20
2018-12-20T21:08:35.710Z,6.20
2018-12-20T21:10:39.350Z,6.20
2018-12-20T21:12:42.820Z,6.20
2018-12-20T21:14:52.406Z,6.20
2018-12-20T21:16:52.263Z,6.20
2018-12-20T21:18:55.982Z,6.20
2018-12-20T21:20:59.225Z,6.20
2018-12-20T21:23:03.684Z,6.30
2018-12-20T21:25:07.614Z,6.30
2018-12-20T21:27:11.474Z,6.30
2018-12-20T21:29:15.166Z,6.30
2018-12-20T21:31:19.082Z,6.30
2018-12-20T21:33:22.651Z,6.30
2018-12-20T21:35:26.118Z,6.30
2018-12-20T21:37:29.386Z,6.30
2018-12-20T21:39:33.185Z,6.30
2018-12-20T21:41:37.182Z,6.30
2018-12-20T21:43:40.402Z,6.30
2018-12-20T21:45:44.177Z,6.30
2018-12-20T21:47:48.059Z,6.40
2018-12-20T21:49:51.837Z,6.40
2018-12-20T21:51:55.002Z,6.40
2018-12-20T21:53:58.757Z,6.30
2018-12-20T21:56:02.694Z,6.40
2018-12-20T21:58:06.161Z,6.40
2018-12-20T22:00:11.103Z,6.40
2018-12-20T22:02:14.594Z,6.40
2018-12-20T22:04:18.074Z,6.40
2018-12-20T22:06:21.966Z,6.40
2018-12-20T22:08:25.454Z,6.40
2018-12-20T22:10:29.018Z,6.40
2018-12-20T22:12:33.122Z,6.40
2018-12-20T22:14:36.614Z,6.40
2018-12-20T22:16:40.118Z,6.40
2018-12-20T22:18:43.316Z,6.40
2018-12-20T22:20:47.362Z,6.40
2018-12-20T22:22:51.506Z,6.40
2018-12-20T22:24:55.751Z,6.40
2018-12-20T22:26:59.447Z,6.50
2018-12-20T22:29:02.964Z,6.40
2018-12-20T22:31:07.638Z,6.40
2018-12-20T22:33:11.123Z,6.40
2018-12-20T22:35:14.311Z,6.40
2018-12-20T22:37:17.822Z,6.40
2018-12-20T22:39:21.622Z,6.50
2018-12-20T22:41:25.124Z,6.40
2018-12-20T22:43:29.049Z,6.50
2018-12-20T22:45:32.518Z,6.50
2018-12-20T22:47:36.385Z,6.50
2018-12-20T22:49:39.938Z,6.50
2018-12-20T22:51:44.097Z,6.50
2018-12-20T22:53:47.285Z,6.50
2018-12-20T22:55:50.922Z,6.50
2018-12-20T22:57:54.386Z,6.50
2018-12-20T22:59:57.977Z,6.50
2018-12-20T23:02:02.766Z,6.50
2018-12-20T23:04:06.347Z,6.50
2018-12-20T23:06:09.814Z,6.50
2018-12-20T23:08:12.994Z,6.50
2018-12-20T23:10:17.208Z,6.50
2018-12-20T23:12:22.642Z,6.50
2018-12-20T23:14:26.120Z,6.50
2018-12-20T23:16:29.608Z,6.50
2018-12-20T23:18:33.172Z,6.50
2018-12-20T23:20:36.626Z,6.50
2018-12-20T23:22:39.814Z,6.50
2018-12-20T23:24:43.355Z,6.50
2018-12-20T23:26:46.826Z,6.50
2018-12-20T23:28:50.661Z,6.50
2018-12-20T23:30:59.822Z,6.50
2018-12-20T23:33:10.215Z,6.50
2018-12-20T23:35:20.410Z,6.60
2018-12-20T23:37:24.781Z,6.50
2018-12-20T23:39:35.857Z,6.50
2018-12-20T23:41:39.936Z,6.50
2018-12-20T23:43:43.420Z,6.50
2018-12-20T23:45:46.934Z,6.50
2018-12-20T23:47:50.106Z,6.40
2018-12-20T23:49:53.309Z,6.40
2018-12-20T23:51:56.490Z,6.40
2018-12-20T23:54:00.038Z,6.40
2018-12-20T23:56:03.986Z,6.40
2018-12-20T23:58:07.490Z,6.40
